Terminal Aerodrome Forecast
Issued by NWS Houston/Galveston, TX

Home | Current Version | Previous Version | Text Only | Print | Product List | Glossary On
Versions: 1 2 3 4 5 6 7 8 9 10 11 12
000
FTUS44 KHGX 121209 AAA
TAFGLS
TAF AMD
KGLS 121209Z 1212/1312 34014KT P6SM SKC
     FM121400 36014G24KT P6SM FEW250
     FM130100 34009KT P6SM SKC
     FM131100 36005KT P6SM BKN250=

USA.gov is the U.S. government's official web portal to all federal, state and local government web resources and services.